createdAt,value
2023-02-14T00:03:14.296Z,1042.1
2023-02-14T00:08:33.194Z,1041.9
2023-02-14T00:14:00.242Z,1041.9
2023-02-14T00:19:42.438Z,1041.9
2023-02-14T00:25:02.906Z,1042
2023-02-14T00:30:32.030Z,1042.1
2023-02-14T00:36:16.568Z,1042
2023-02-14T00:41:59.765Z,1042
2023-02-14T00:47:12.920Z,1042.1
2023-02-14T00:52:42.220Z,1042.1
2023-02-14T01:03:55.596Z,1042.1
2023-02-14T01:09:34.938Z,1042
2023-02-14T01:14:53.119Z,1042
2023-02-14T01:20:51.552Z,1041.9
2023-02-14T01:26:10.574Z,1042
2023-02-14T01:31:47.211Z,1041.9
2023-02-14T01:37:06.028Z,1041.9
2023-02-14T01:42:43.925Z,1041.9
2023-02-14T01:48:26.474Z,1041.8
2023-02-14T01:54:04.976Z,1041.8
2023-02-14T01:59:21.103Z,1041.9
2023-02-14T02:05:05.335Z,1041.9
2023-02-14T02:10:40.532Z,1041.9
2023-02-14T02:16:04.669Z,1041.9
2023-02-14T02:21:35.449Z,1042
2023-02-14T02:26:57.342Z,1041.8
2023-02-14T02:32:37.356Z,1041.9
2023-02-14T02:38:12.618Z,1041.9
2023-02-14T02:43:32.892Z,1041.9
2023-02-14T02:49:04.893Z,1042
2023-02-14T02:54:47.821Z,1042
2023-02-14T03:00:12.754Z,1041.8
2023-02-14T03:05:52.619Z,1041.8
2023-02-14T03:11:15.493Z,1041.7
2023-02-14T03:17:04.405Z,1041.9
2023-02-14T03:22:29.510Z,1041.8
2023-02-14T03:28:17.056Z,1041.8
2023-02-14T03:33:33.855Z,1041.9
2023-02-14T03:39:09.825Z,1042
2023-02-14T03:44:55.302Z,1041.9
2023-02-14T03:50:04.766Z,1041.8
2023-02-14T03:55:51.521Z,1041.9
2023-02-14T04:01:11.858Z,1041.9
2023-02-14T04:07:02.506Z,1041.9
2023-02-14T04:12:18.162Z,1041.9
2023-02-14T04:18:06.181Z,1041.9
2023-02-14T04:23:22.400Z,1041.9
2023-02-14T04:28:53.060Z,1041.9
2023-02-14T04:34:46.658Z,1041.9
2023-02-14T04:40:11.770Z,1041.8
2023-02-14T04:45:54.048Z,1041.9
2023-02-14T04:51:03.548Z,1041.8
2023-02-14T04:56:56.181Z,1041.9
2023-02-14T05:02:26.068Z,1041.9
2023-02-14T05:07:40.535Z,1041.9
2023-02-14T05:13:38.134Z,1041.9
2023-02-14T05:19:00.062Z,1041.9
2023-02-14T05:24:42.139Z,1042
2023-02-14T05:29:57.797Z,1042
2023-02-14T05:35:40.736Z,1042.1
2023-02-14T05:41:15.038Z,1042.1
2023-02-14T05:46:51.734Z,1042.1
2023-02-14T05:52:01.397Z,1042.1
2023-02-14T05:57:29.361Z,1042.1
2023-02-14T06:03:12.106Z,1042.1
2023-02-14T06:08:55.446Z,1042.1
2023-02-14T06:14:18.089Z,1042.3
2023-02-14T06:20:02.023Z,1042.2
2023-02-14T06:25:33.093Z,1042.2
2023-02-14T06:31:11.545Z,1042.2
2023-02-14T06:36:40.797Z,1042.2
2023-02-14T06:42:09.557Z,1042.2
2023-02-14T06:47:26.926Z,1042.2
2023-02-14T06:53:17.139Z,1042.2
2023-02-14T06:58:49.271Z,1042.2
2023-02-14T07:04:20.269Z,1042.3
2023-02-14T07:09:37.985Z,1042.4
2023-02-14T07:15:14.204Z,1042.4
2023-02-14T07:21:02.721Z,1042.4
2023-02-14T07:26:10.413Z,1042.4
2023-02-14T07:32:05.980Z,1042.4
2023-02-14T07:37:24.147Z,1042.3
2023-02-14T07:43:00.421Z,1042.3
2023-02-14T07:48:37.661Z,1042.2
2023-02-14T07:54:20.254Z,1042.2
2023-02-14T07:59:37.830Z,1042.2
2023-02-14T08:05:02.793Z,1042.3
2023-02-14T08:10:34.071Z,1042.2
2023-02-14T08:16:22.451Z,1042.2
2023-02-14T08:22:04.104Z,1042.2
2023-02-14T08:27:37.659Z,1042.2
2023-02-14T08:32:59.249Z,1042.1
2023-02-14T08:38:24.136Z,1042
2023-02-14T08:44:11.509Z,1041.9
2023-02-14T08:49:44.058Z,1041.9
2023-02-14T08:55:11.628Z,1041.8
2023-02-14T09:00:48.035Z,1041.7
2023-02-14T09:06:22.937Z,1041.8
2023-02-14T09:11:33.445Z,1041.9
2023-02-14T09:17:04.226Z,1041.9
2023-02-14T09:22:56.949Z,1041.9
2023-02-14T09:28:10.192Z,1041.8
2023-02-14T09:33:52.028Z,1041.9
2023-02-14T09:39:24.827Z,1041.9
2023-02-14T09:45:14.115Z,1041.6
2023-02-14T09:50:43.338Z,1041.5
2023-02-14T09:56:09.060Z,1041.6
2023-02-14T10:01:50.955Z,1041.4
2023-02-14T10:07:13.255Z,1041.4
2023-02-14T10:12:42.638Z,1041.2
2023-02-14T10:18:09.893Z,1041.1
2023-02-14T10:23:53.166Z,1041.2
2023-02-14T10:29:23.040Z,1041.1
2023-02-14T10:35:00.822Z,1041.1
2023-02-14T10:40:39.643Z,1041.1
2023-02-14T10:46:09.510Z,1041
2023-02-14T10:51:47.867Z,1040.9
2023-02-14T10:57:15.260Z,1040.8
2023-02-14T11:02:41.242Z,1040.5
2023-02-14T11:08:12.169Z,1040.3
2023-02-14T11:13:58.051Z,1040.3
2023-02-14T11:19:16.256Z,1040.2
2023-02-14T11:24:46.538Z,1040
2023-02-14T11:30:41.906Z,1039.8
2023-02-14T11:36:06.221Z,1039.7
2023-02-14T11:41:39.776Z,1039.5
2023-02-14T11:47:07.848Z,1039.5
2023-02-14T11:52:40.673Z,1039.2
2023-02-14T11:58:08.527Z,1039.2
2023-02-14T12:04:01.962Z,1039.1
2023-02-14T12:09:10.073Z,1039
2023-02-14T12:14:44.922Z,1039
2023-02-14T12:20:41.614Z,1038.7
2023-02-14T12:26:00.052Z,1038.5
2023-02-14T12:31:24.103Z,1038.4
2023-02-14T12:37:05.476Z,1038.2
2023-02-14T12:42:37.636Z,1038.2
2023-02-14T12:48:03.147Z,1038
2023-02-14T12:53:33.224Z,1037.8
2023-02-14T12:59:08.609Z,1037.7
2023-02-14T13:04:51.373Z,1037.6
2023-02-14T13:10:19.108Z,1037.4
2023-02-14T13:16:12.850Z,1037.2
2023-02-14T13:21:35.176Z,1037.1
2023-02-14T13:27:25.342Z,1036.8
2023-02-14T13:32:57.487Z,1036.7
2023-02-14T13:38:10.677Z,1036.5
2023-02-14T13:44:10.480Z,1036.2
2023-02-14T13:49:48.676Z,1036
2023-02-14T13:55:07.234Z,1035.6
2023-02-14T14:00:55.425Z,1035.2
2023-02-14T14:06:10.979Z,1035
2023-02-14T14:11:50.763Z,1035
2023-02-14T14:17:47.592Z,1035
2023-02-14T14:23:00.246Z,1035.1
2023-02-14T14:28:49.425Z,1034.9
2023-02-14T14:34:38.461Z,1034.7
2023-02-14T14:39:52.779Z,1034.6
2023-02-14T14:45:26.346Z,1034.6
2023-02-14T14:51:18.722Z,1034.4
2023-02-14T14:56:41.071Z,1034.6
2023-02-14T15:02:06.184Z,1034.3
2023-02-14T15:07:41.122Z,1034.3
2023-02-14T15:13:40.432Z,1034.2
2023-02-14T15:19:12.245Z,1034.4
2023-02-14T15:24:26.256Z,1034.4
2023-02-14T15:30:02.776Z,1034.3
2023-02-14T15:35:58.059Z,1034.6
2023-02-14T15:41:13.322Z,1034.5
2023-02-14T15:46:43.163Z,1034.5
2023-02-14T15:52:23.702Z,1034.6
2023-02-14T15:57:46.163Z,1034.6
2023-02-14T16:03:28.490Z,1034.6
2023-02-14T16:09:02.626Z,1034.5
2023-02-14T16:14:43.042Z,1034.7
2023-02-14T16:20:01.528Z,1034.9
2023-02-14T16:25:40.573Z,1035
2023-02-14T16:31:19.852Z,1035.1
2023-02-14T16:37:03.134Z,1035.1
2023-02-14T16:42:15.871Z,1035.1
2023-02-14T16:47:54.872Z,1035.1
2023-02-14T16:59:12.094Z,1035.5
2023-02-14T17:04:33.314Z,1035.6
2023-02-14T17:10:18.261Z,1035.7
2023-02-14T17:15:33.384Z,1035.7
2023-02-14T17:21:13.161Z,1035.8
2023-02-14T17:26:50.105Z,1036
2023-02-14T17:32:24.887Z,1036
2023-02-14T17:38:04.954Z,1036.1
2023-02-14T17:43:42.717Z,1036.2
2023-02-14T17:49:19.294Z,1036.2
2023-02-14T17:54:51.063Z,1036.2
2023-02-14T18:00:14.561Z,1036.2
2023-02-14T18:05:38.843Z,1036.1
2023-02-14T18:11:11.142Z,1035.9
2023-02-14T18:17:03.554Z,1035.8
2023-02-14T18:22:36.110Z,1035.9
2023-02-14T18:27:51.763Z,1035.9
2023-02-14T18:33:21.289Z,1036.1
2023-02-14T18:39:07.104Z,1036.1
2023-02-14T18:44:28.328Z,1036.2
2023-02-14T18:50:01.223Z,1036.2
2023-02-14T18:55:49.499Z,1036.2
2023-02-14T19:01:15.036Z,1036.3
2023-02-14T19:06:43.400Z,1036.3
2023-02-14T19:12:13.852Z,1036.3
2023-02-14T19:17:58.625Z,1036.3
2023-02-14T19:23:19.254Z,1036.4
2023-02-14T19:28:59.749Z,1036.3
2023-02-14T19:34:29.660Z,1036.4
2023-02-14T19:40:04.313Z,1036.4
2023-02-14T19:45:50.116Z,1036.3
2023-02-14T19:51:09.032Z,1036.3
2023-02-14T19:56:30.604Z,1036.2
2023-02-14T20:02:09.518Z,1036.4
2023-02-14T20:07:52.297Z,1036.4
2023-02-14T20:13:18.696Z,1036.4
2023-02-14T20:19:06.008Z,1036.5
2023-02-14T20:24:19.766Z,1036.5
2023-02-14T20:29:58.784Z,1036.4
2023-02-14T20:35:36.417Z,1036.4
2023-02-14T20:40:59.330Z,1036.4
2023-02-14T20:46:44.613Z,1036.6
2023-02-14T20:51:55.934Z,1036.5
2023-02-14T20:57:46.125Z,1036.7
2023-02-14T21:03:23.798Z,1036.7
2023-02-14T21:08:59.853Z,1036.6
2023-02-14T21:14:07.117Z,1036.6
2023-02-14T21:19:45.203Z,1036.7
2023-02-14T21:25:38.594Z,1036.6
2023-02-14T21:30:56.409Z,1036.3
2023-02-14T21:36:42.320Z,1036.3
2023-02-14T21:42:12.058Z,1036.5
2023-02-14T21:47:30.338Z,1036.5
2023-02-14T21:53:03.487Z,1036.5
2023-02-14T21:58:53.217Z,1036.6
2023-02-14T22:04:02.261Z,1036.6
2023-02-14T22:09:43.612Z,1036.6
2023-02-14T22:15:21.862Z,1036.5
2023-02-14T22:21:06.744Z,1036.5
2023-02-14T22:26:19.516Z,1036.5
2023-02-14T22:31:48.650Z,1036.5
2023-02-14T22:37:40.118Z,1036.7
2023-02-14T22:43:09.317Z,1036.6
2023-02-14T22:48:28.254Z,1036.7
2023-02-14T22:54:23.005Z,1036.7
2023-02-14T22:59:53.281Z,1036.7
2023-02-14T23:05:08.443Z,1036.8
2023-02-14T23:10:43.809Z,1036.7
2023-02-14T23:16:34.584Z,1036.7
2023-02-14T23:21:48.480Z,1036.7
2023-02-14T23:27:32.703Z,1036.6
2023-02-14T23:32:51.447Z,1036.7
2023-02-14T23:38:29.969Z,1036.6
2023-02-14T23:44:03.648Z,1036.6
2023-02-14T23:49:37.888Z,1036.6
2023-02-14T23:54:58.729Z,1036.5
